Time;durP1;ratioP1;P1;durP2;ratioP2;P2;SDS_P1;SDS_P2;PMS_P1;PMS_P2;Temp;Humidity;BMP_temperature;BMP_pressure;BME280_temperature;BME280_humidity;BME280_pressure;Samples;Min_cycle;Max_cycle;Signal;HPM_P1;HPM_P2
2023/06/02 00:02:16;;;;;;;;;;;17.20;99.80;;;;;;5058261;28;19913;-53
2023/06/02 00:04:42;;;;;;;;;;;17.20;99.90;;;;;;5039781;28;19909;-52
2023/06/02 00:07:08;;;;;;;;;;;17.20;99.90;;;;;;5057517;28;19909;-50
2023/06/02 00:09:40;;;;;;;;;;;17.20;99.90;;;;;;5057822;28;19972;-54
2023/06/02 00:12:07;;;;;;;;;;;17.20;99.90;;;;;;5059564;28;19920;-51
2023/06/02 00:14:34;;;;;;;;;;;17.20;99.90;;;;;;5061373;28;19925;-51
2023/06/02 00:17:03;;;;;;;;;;;17.20;99.90;;;;;;5062089;28;19909;-54
2023/06/02 00:19:32;;;;;;;;;;;17.20;99.90;;;;;;5061357;28;20395;-48
2023/06/02 00:22:01;;;;;;;;;;;17.20;99.90;;;;;;5061556;28;19955;-51
2023/06/02 00:24:26;;;;;;;;;;;17.10;99.90;;;;;;5061466;28;20317;-53
2023/06/02 00:26:52;;;;;;;;;;;17.10;99.90;;;;;;5061749;28;19970;-51
2023/06/02 00:29:17;;;;;;;;;;;17.10;99.90;;;;;;5062000;28;19909;-52
2023/06/02 00:31:43;;;;;;;;;;;17.10;99.90;;;;;;5061399;28;19958;-52
2023/06/02 00:34:09;;;;;;;;;;;17.10;99.90;;;;;;5061508;28;19955;-53
2023/06/02 00:36:34;;;;;;;;;;;17.00;99.90;;;;;;5061772;28;19916;-51
2023/06/02 00:39:00;;;;;;;;;;;17.00;99.90;;;;;;5061566;28;19909;-51
2023/06/02 00:41:26;;;;;;;;;;;17.00;99.90;;;;;;5061465;28;19909;-54
2023/06/02 00:43:51;;;;;;;;;;;16.90;99.90;;;;;;5061342;28;19913;-51
2023/06/02 00:46:17;;;;;;;;;;;16.90;99.90;;;;;;5061450;28;19908;-51
2023/06/02 00:48:43;;;;;;;;;;;16.90;99.90;;;;;;5061395;28;19944;-51
2023/06/02 00:51:09;;;;;;;;;;;16.90;99.90;;;;;;5061920;28;19920;-53
2023/06/02 00:53:36;;;;;;;;;;;16.90;99.90;;;;;;5061081;28;19911;-54
2023/06/02 00:56:02;;;;;;;;;;;16.90;99.90;;;;;;5061205;28;19924;-51
2023/06/02 00:58:28;;;;;;;;;;;16.80;99.90;;;;;;5061213;28;20367;-53
2023/06/02 01:00:54;;;;;;;;;;;16.80;99.90;;;;;;5061135;28;19955;-53
2023/06/02 01:03:21;;;;;;;;;;;16.80;99.90;;;;;;5060915;28;19916;-49
2023/06/02 01:05:48;;;;;;;;;;;16.80;99.90;;;;;;5060652;28;19995;-52
2023/06/02 01:08:15;;;;;;;;;;;16.80;99.90;;;;;;5061170;28;19909;-54
2023/06/02 01:10:41;;;;;;;;;;;16.80;99.90;;;;;;5060939;28;19920;-52
2023/06/02 01:13:06;;;;;;;;;;;16.80;99.90;;;;;;5060501;28;20393;-54
2023/06/02 01:15:32;;;;;;;;;;;16.70;99.90;;;;;;5060877;28;19916;-50
2023/06/02 01:17:59;;;;;;;;;;;16.70;99.90;;;;;;5060686;28;19944;-53
2023/06/02 01:20:25;;;;;;;;;;;16.70;99.90;;;;;;5060796;28;19936;-52
2023/06/02 01:23:15;;;;;;;;;;;16.70;99.90;;;;;;5059873;28;20253;-54
2023/06/02 01:25:40;;;;;;;;;;;16.70;99.90;;;;;;5060491;28;20299;-51
2023/06/02 01:28:07;;;;;;;;;;;16.60;99.90;;;;;;5060715;28;19908;-52
2023/06/02 01:30:33;;;;;;;;;;;16.60;99.90;;;;;;5060533;28;19913;-50
2023/06/02 01:32:58;;;;;;;;;;;16.60;99.90;;;;;;5060594;28;20364;-54
2023/06/02 01:35:26;;;;;;;;;;;16.60;99.90;;;;;;5060447;28;20339;-53
2023/06/02 01:37:54;;;;;;;;;;;16.60;99.90;;;;;;5060470;28;19915;-51
2023/06/02 01:40:21;;;;;;;;;;;16.60;99.90;;;;;;5060272;28;19909;-53
2023/06/02 01:42:47;;;;;;;;;;;16.60;99.90;;;;;;5060198;28;19924;-52
2023/06/02 01:45:13;;;;;;;;;;;16.60;99.90;;;;;;5060357;28;19909;-52
2023/06/02 01:47:39;;;;;;;;;;;16.50;99.90;;;;;;5060057;28;19944;-52
2023/06/02 01:50:05;;;;;;;;;;;16.50;99.90;;;;;;5059723;28;20437;-54
2023/06/02 01:52:32;;;;;;;;;;;16.50;99.90;;;;;;5060179;28;19915;-51
2023/06/02 01:54:57;;;;;;;;;;;16.50;99.90;;;;;;5059752;28;19909;-51
2023/06/02 01:57:23;;;;;;;;;;;16.50;99.90;;;;;;5060353;28;20275;-52
2023/06/02 01:59:49;;;;;;;;;;;16.40;99.90;;;;;;5059852;28;19916;-51
2023/06/02 02:02:15;;;;;;;;;;;16.40;99.90;;;;;;5059834;28;19909;-53
2023/06/02 02:04:41;;;;;;;;;;;16.40;99.90;;;;;;5059807;28;19909;-54
2023/06/02 02:07:08;;;;;;;;;;;16.40;99.90;;;;;;5059574;28;19909;-53
2023/06/02 02:09:34;;;;;;;;;;;16.40;99.90;;;;;;5059683;28;19916;-53
2023/06/02 02:12:00;;;;;;;;;;;16.40;99.90;;;;;;5059555;28;20273;-53
2023/06/02 02:14:26;;;;;;;;;;;16.40;99.90;;;;;;5059405;28;19921;-54
2023/06/02 02:16:52;;;;;;;;;;;16.40;99.90;;;;;;5059277;28;20445;-53
2023/06/02 02:19:18;;;;;;;;;;;16.40;99.90;;;;;;5059886;28;19908;-54
2023/06/02 02:21:44;;;;;;;;;;;16.30;99.90;;;;;;5059495;28;19909;-53
2023/06/02 02:24:09;;;;;;;;;;;16.30;99.90;;;;;;5059284;28;19915;-53
2023/06/02 02:26:35;;;;;;;;;;;16.30;99.90;;;;;;5059525;28;19913;-51
2023/06/02 02:29:01;;;;;;;;;;;16.30;99.90;;;;;;5059550;28;19909;-52
2023/06/02 02:31:27;;;;;;;;;;;16.30;99.90;;;;;;5059244;28;19913;-54
2023/06/02 02:33:53;;;;;;;;;;;16.30;99.90;;;;;;5059192;28;20429;-54
2023/06/02 02:36:19;;;;;;;;;;;16.20;99.90;;;;;;5059045;28;19909;-50
2023/06/02 02:38:44;;;;;;;;;;;16.20;99.90;;;;;;5059250;28;19952;-52
2023/06/02 02:41:10;;;;;;;;;;;16.20;99.90;;;;;;5059404;28;19916;-52
2023/06/02 02:43:36;;;;;;;;;;;16.20;99.90;;;;;;5059493;28;19909;-50
2023/06/02 02:46:01;;;;;;;;;;;16.20;99.90;;;;;;5058962;28;19920;-51
2023/06/02 02:48:27;;;;;;;;;;;16.10;99.90;;;;;;5059214;28;20000;-54
2023/06/02 02:50:53;;;;;;;;;;;16.10;99.90;;;;;;5058814;28;19913;-53
2023/06/02 02:53:19;;;;;;;;;;;16.10;99.90;;;;;;5059053;28;19908;-52
2023/06/02 02:55:44;;;;;;;;;;;16.10;99.90;;;;;;5058768;28;19996;-51
2023/06/02 02:58:10;;;;;;;;;;;16.10;99.90;;;;;;5058798;28;19916;-53
2023/06/02 03:00:36;;;;;;;;;;;16.10;99.90;;;;;;5058936;28;19909;-53
2023/06/02 03:03:01;;;;;;;;;;;16.10;99.90;;;;;;5058904;28;20375;-53
2023/06/02 03:05:27;;;;;;;;;;;16.10;99.90;;;;;;5058809;28;19959;-52
2023/06/02 03:07:54;;;;;;;;;;;16.00;99.90;;;;;;5058987;28;19909;-50
2023/06/02 03:10:20;;;;;;;;;;;16.00;99.90;;;;;;5058350;28;19916;-53
2023/06/02 03:12:45;;;;;;;;;;;16.00;99.90;;;;;;5058315;28;19928;-53
2023/06/02 03:15:11;;;;;;;;;;;16.00;99.90;;;;;;5058426;28;19920;-52
2023/06/02 03:17:37;;;;;;;;;;;16.00;99.90;;;;;;5058463;28;19912;-49
2023/06/02 03:20:08;;;;;;;;;;;16.00;99.90;;;;;;5058363;28;20003;-54
2023/06/02 03:22:34;;;;;;;;;;;16.00;99.90;;;;;;5058727;28;19908;-52
2023/06/02 03:24:59;;;;;;;;;;;16.00;99.90;;;;;;5058258;28;20434;-54
2023/06/02 03:27:25;;;;;;;;;;;15.90;99.90;;;;;;5058710;28;20314;-51
2023/06/02 03:29:51;;;;;;;;;;;15.90;99.90;;;;;;5058201;28;19918;-54
2023/06/02 03:32:17;;;;;;;;;;;15.90;99.90;;;;;;5058340;28;19913;-53
2023/06/02 03:34:44;;;;;;;;;;;15.90;99.90;;;;;;5058328;28;20360;-51
2023/06/02 03:37:11;;;;;;;;;;;15.90;99.90;;;;;;5057861;28;20288;-54
2023/06/02 03:39:37;;;;;;;;;;;15.90;99.90;;;;;;5057985;28;19909;-53
2023/06/02 03:42:03;;;;;;;;;;;15.80;99.90;;;;;;5057992;28;19923;-51
2023/06/02 03:44:28;;;;;;;;;;;15.80;99.90;;;;;;5058406;28;19963;-52
2023/06/02 03:46:54;;;;;;;;;;;15.80;99.90;;;;;;5057314;28;19909;-54
2023/06/02 03:49:20;;;;;;;;;;;15.80;99.90;;;;;;5057957;28;19909;-54
2023/06/02 03:51:46;;;;;;;;;;;15.80;99.90;;;;;;5057704;28;19920;-49
2023/06/02 03:54:12;;;;;;;;;;;15.80;99.90;;;;;;5039839;28;19920;-52
2023/06/02 03:56:38;;;;;;;;;;;15.70;99.90;;;;;;5058043;28;19910;-49
2023/06/02 03:59:04;;;;;;;;;;;15.80;99.90;;;;;;5058236;28;19955;-52
2023/06/02 04:01:30;;;;;;;;;;;15.80;99.90;;;;;;5057719;28;19909;-52
2023/06/02 04:03:55;;;;;;;;;;;15.70;99.90;;;;;;5057850;28;20336;-51
2023/06/02 04:06:21;;;;;;;;;;;15.70;99.90;;;;;;5057856;28;20436;-54
2023/06/02 04:08:47;;;;;;;;;;;15.70;99.90;;;;;;5057953;28;19913;-51
2023/06/02 04:11:13;;;;;;;;;;;15.70;99.90;;;;;;5057532;28;20376;-54
2023/06/02 04:13:38;;;;;;;;;;;15.70;99.90;;;;;;5057629;28;19944;-51
2023/06/02 04:16:04;;;;;;;;;;;15.70;99.90;;;;;;5057653;28;20398;-49
2023/06/02 04:18:31;;;;;;;;;;;15.70;99.90;;;;;;5057789;28;19908;-51
2023/06/02 04:20:57;;;;;;;;;;;15.60;99.90;;;;;;5057554;28;20261;-52
2023/06/02 04:23:23;;;;;;;;;;;15.60;99.90;;;;;;5057591;28;19909;-52
2023/06/02 04:25:48;;;;;;;;;;;15.60;99.90;;;;;;5057931;28;19913;-52
2023/06/02 04:28:15;;;;;;;;;;;15.60;99.90;;;;;;5057981;28;19923;-52
2023/06/02 04:30:40;;;;;;;;;;;15.60;99.90;;;;;;5057797;28;19913;-49
2023/06/02 04:33:06;;;;;;;;;;;15.60;99.90;;;;;;5057733;28;19939;-50
2023/06/02 04:35:33;;;;;;;;;;;15.50;99.90;;;;;;5057263;28;19912;-52
2023/06/02 04:37:58;;;;;;;;;;;15.50;99.90;;;;;;5057792;28;19909;-52
2023/06/02 04:40:24;;;;;;;;;;;15.50;99.90;;;;;;5057609;28;19916;-54
2023/06/02 04:42:49;;;;;;;;;;;15.50;99.90;;;;;;5057365;28;19909;-49
2023/06/02 04:45:16;;;;;;;;;;;15.50;99.90;;;;;;5057653;28;20390;-51
2023/06/02 04:47:42;;;;;;;;;;;15.40;99.90;;;;;;5057280;28;20451;-50
2023/06/02 04:50:11;;;;;;;;;;;15.40;99.90;;;;;;5057329;28;19908;-51
2023/06/02 04:52:40;;;;;;;;;;;15.40;99.90;;;;;;5057465;28;19915;-53
2023/06/02 04:55:09;;;;;;;;;;;15.40;99.90;;;;;;5057255;28;19951;-48
2023/06/02 04:57:36;;;;;;;;;;;15.40;99.90;;;;;;5058233;28;19908;-51
2023/06/02 05:00:03;;;;;;;;;;;15.40;99.90;;;;;;5060837;28;20441;-53
2023/06/02 05:02:29;;;;;;;;;;;15.40;99.90;;;;;;5060922;28;20379;-52
2023/06/02 05:04:55;;;;;;;;;;;15.40;99.90;;;;;;5061166;28;19932;-53
2023/06/02 05:07:20;;;;;;;;;;;15.40;99.90;;;;;;5060829;28;19992;-52
2023/06/02 05:09:46;;;;;;;;;;;15.40;99.90;;;;;;5060843;28;19915;-52
2023/06/02 05:12:12;;;;;;;;;;;15.40;99.90;;;;;;5061109;28;20367;-50
2023/06/02 05:14:37;;;;;;;;;;;15.40;99.90;;;;;;5060437;28;20379;-52
2023/06/02 05:17:04;;;;;;;;;;;15.40;99.90;;;;;;5061125;28;19916;-53
2023/06/02 05:19:30;;;;;;;;;;;15.40;99.90;;;;;;5060809;28;20066;-52
2023/06/02 05:21:55;;;;;;;;;;;15.40;99.90;;;;;;5060338;28;19947;-54
2023/06/02 05:24:21;;;;;;;;;;;15.40;99.90;;;;;;5060977;28;20382;-52
2023/06/02 05:26:47;;;;;;;;;;;15.40;99.90;;;;;;5060669;28;19909;-51
2023/06/02 05:29:12;;;;;;;;;;;15.40;99.90;;;;;;5060671;28;19968;-51
2023/06/02 05:31:38;;;;;;;;;;;15.40;99.90;;;;;;5060588;28;19912;-51
2023/06/02 05:34:03;;;;;;;;;;;15.40;99.90;;;;;;5060370;28;19913;-51
2023/06/02 05:36:29;;;;;;;;;;;15.50;99.90;;;;;;5060558;28;20394;-52
2023/06/02 05:38:54;;;;;;;;;;;15.50;99.90;;;;;;5060200;28;19913;-48
2023/06/02 05:41:20;;;;;;;;;;;15.50;99.90;;;;;;5060495;28;19909;-52
2023/06/02 05:43:46;;;;;;;;;;;15.50;99.90;;;;;;5060072;28;19909;-49
2023/06/02 05:46:12;;;;;;;;;;;15.40;99.90;;;;;;5060296;28;19912;-52
2023/06/02 05:48:38;;;;;;;;;;;15.50;99.90;;;;;;5059982;28;20007;-50
2023/06/02 05:51:04;;;;;;;;;;;15.50;99.90;;;;;;5059798;28;19913;-52
2023/06/02 05:53:29;;;;;;;;;;;15.50;99.90;;;;;;5059764;28;19909;-51
2023/06/02 05:55:55;;;;;;;;;;;15.50;99.90;;;;;;5059715;28;19909;-53
2023/06/02 05:58:20;;;;;;;;;;;15.50;99.90;;;;;;5060055;28;19913;-51
2023/06/02 06:00:46;;;;;;;;;;;15.50;99.90;;;;;;5059890;28;19909;-51
2023/06/02 06:03:12;;;;;;;;;;;15.60;99.90;;;;;;5059745;28;19980;-53
2023/06/02 06:05:38;;;;;;;;;;;15.60;99.90;;;;;;5060003;28;19932;-52
2023/06/02 06:08:04;;;;;;;;;;;15.60;99.90;;;;;;5059852;28;19909;-53
2023/06/02 06:10:29;;;;;;;;;;;15.60;99.90;;;;;;5059045;28;20363;-50
2023/06/02 06:12:55;;;;;;;;;;;15.60;99.90;;;;;;5059555;28;19952;-49
2023/06/02 06:15:21;;;;;;;;;;;15.70;99.90;;;;;;5058945;28;19996;-53
2023/06/02 06:17:50;;;;;;;;;;;15.60;99.90;;;;;;5058158;28;19909;-52
2023/06/02 06:20:16;;;;;;;;;;;15.70;99.90;;;;;;5059268;28;19975;-54
2023/06/02 06:22:42;;;;;;;;;;;15.70;99.90;;;;;;5059042;28;19917;-50
2023/06/02 06:25:08;;;;;;;;;;;15.80;99.90;;;;;;5059313;28;20283;-54
2023/06/02 06:27:34;;;;;;;;;;;15.80;99.90;;;;;;5059156;28;19909;-51
2023/06/02 06:29:59;;;;;;;;;;;15.80;99.90;;;;;;5059291;28;19908;-49
2023/06/02 06:32:25;;;;;;;;;;;15.80;99.90;;;;;;5059154;28;19913;-51
2023/06/02 06:34:50;;;;;;;;;;;15.90;99.90;;;;;;5059042;28;20260;-55
2023/06/02 06:37:16;;;;;;;;;;;15.90;99.90;;;;;;5058691;28;19970;-50
2023/06/02 06:39:42;;;;;;;;;;;15.90;99.90;;;;;;5059334;28;19919;-51
2023/06/02 06:42:08;;;;;;;;;;;16.00;99.90;;;;;;5059265;28;19909;-51
2023/06/02 06:44:33;;;;;;;;;;;16.10;99.90;;;;;;5058994;28;19909;-49
2023/06/02 06:46:59;;;;;;;;;;;16.10;99.90;;;;;;5059194;28;19931;-50
2023/06/02 06:49:24;;;;;;;;;;;16.20;99.90;;;;;;5058877;28;19909;-53
2023/06/02 06:51:50;;;;;;;;;;;16.20;99.90;;;;;;5059018;28;19913;-51
2023/06/02 06:54:16;;;;;;;;;;;16.30;99.90;;;;;;5058387;28;20368;-52
2023/06/02 06:56:43;;;;;;;;;;;16.30;99.90;;;;;;5056586;28;20327;-53
2023/06/02 06:59:10;;;;;;;;;;;16.30;99.90;;;;;;5057447;28;19908;-53
2023/06/02 07:01:36;;;;;;;;;;;16.40;99.90;;;;;;5058764;28;20414;-51
2023/06/02 07:04:02;;;;;;;;;;;16.40;99.90;;;;;;5059271;28;19912;-53
2023/06/02 07:06:27;;;;;;;;;;;16.50;99.90;;;;;;5059078;28;19916;-53
2023/06/02 07:08:53;;;;;;;;;;;16.60;99.90;;;;;;5059077;28;19909;-50
2023/06/02 07:11:19;;;;;;;;;;;16.60;99.90;;;;;;5058637;28;19912;-51
2023/06/02 07:13:44;;;;;;;;;;;16.60;99.90;;;;;;5058465;28;19927;-50
2023/06/02 07:16:10;;;;;;;;;;;16.60;99.90;;;;;;5058728;28;20325;-53
2023/06/02 07:18:36;;;;;;;;;;;16.60;99.90;;;;;;5058843;28;19909;-52
2023/06/02 07:21:01;;;;;;;;;;;16.70;99.90;;;;;;5058551;28;19920;-51
2023/06/02 07:23:27;;;;;;;;;;;16.70;99.90;;;;;;5058681;28;19916;-51
2023/06/02 07:25:53;;;;;;;;;;;16.80;99.90;;;;;;5058729;28;19908;-52
2023/06/02 07:28:18;;;;;;;;;;;16.90;99.90;;;;;;5058827;28;19909;-53
2023/06/02 07:30:53;;;;;;;;;;;17.00;99.90;;;;;;5058630;28;19939;-50
2023/06/02 07:33:19;;;;;;;;;;;17.00;99.90;;;;;;5058443;28;19909;-53
2023/06/02 07:35:45;;;;;;;;;;;17.10;99.90;;;;;;5058581;28;19970;-52
2023/06/02 07:38:10;;;;;;;;;;;17.10;99.90;;;;;;5058347;28;19916;-53
2023/06/02 07:40:36;;;;;;;;;;;17.10;99.90;;;;;;5058104;28;19908;-54
2023/06/02 07:43:02;;;;;;;;;;;17.20;99.90;;;;;;5058301;28;19995;-52
2023/06/02 07:45:27;;;;;;;;;;;17.20;99.90;;;;;;5058489;28;19909;-53
2023/06/02 07:47:53;;;;;;;;;;;17.30;99.90;;;;;;5058169;28;19908;-54
2023/06/02 07:50:19;;;;;;;;;;;17.30;99.90;;;;;;5056177;28;20139;-52
2023/06/02 07:52:45;;;;;;;;;;;17.30;99.90;;;;;;5057049;28;19912;-54
2023/06/02 07:55:11;;;;;;;;;;;17.40;99.90;;;;;;5057307;28;19913;-54
2023/06/02 07:57:37;;;;;;;;;;;17.50;99.90;;;;;;5056684;28;19964;-53
2023/06/02 08:00:13;;;;;;;;;;;17.60;99.90;;;;;;5057327;28;19909;-53
2023/06/02 08:02:40;;;;;;;;;;;17.60;99.90;;;;;;5057353;28;19909;-54
2023/06/02 08:05:06;;;;;;;;;;;17.70;99.90;;;;;;5057382;28;19932;-49
2023/06/02 08:07:31;;;;;;;;;;;17.70;99.90;;;;;;5057117;28;20047;-53
2023/06/02 08:09:57;;;;;;;;;;;17.80;99.90;;;;;;5057417;28;19952;-54
2023/06/02 08:12:23;;;;;;;;;;;17.80;99.90;;;;;;5057224;28;19917;-53
2023/06/02 08:14:48;;;;;;;;;;;17.90;99.90;;;;;;5056164;28;19912;-50
2023/06/02 08:17:14;;;;;;;;;;;17.90;99.90;;;;;;5057733;28;19976;-51
2023/06/02 08:19:41;;;;;;;;;;;18.00;99.90;;;;;;5056529;28;20444;-53
2023/06/02 08:22:09;;;;;;;;;;;18.00;99.90;;;;;;5057404;28;19916;-53
2023/06/02 08:24:36;;;;;;;;;;;18.10;99.90;;;;;;5057486;28;19912;-52
2023/06/02 08:27:03;;;;;;;;;;;18.10;99.90;;;;;;5057117;28;19909;-52
2023/06/02 08:29:30;;;;;;;;;;;18.10;99.90;;;;;;5056065;28;19955;-51
2023/06/02 08:31:56;;;;;;;;;;;18.20;99.90;;;;;;5056166;28;19913;-49
2023/06/02 08:34:23;;;;;;;;;;;18.30;99.90;;;;;;5060865;28;19962;-51
2023/06/02 08:36:56;;;;;;;;;;;18.30;99.90;;;;;;5061327;28;19909;-50
2023/06/02 08:39:22;;;;;;;;;;;18.40;99.90;;;;;;5061339;28;19913;-51
2023/06/02 08:41:48;;;;;;;;;;;18.50;99.90;;;;;;5061002;28;20356;-51
2023/06/02 08:44:14;;;;;;;;;;;18.50;99.90;;;;;;5060349;28;19959;-51
2023/06/02 08:46:40;;;;;;;;;;;18.50;99.90;;;;;;5060580;28;19909;-52
2023/06/02 08:49:07;;;;;;;;;;;18.60;99.90;;;;;;5060997;28;20466;-51
2023/06/02 08:51:36;;;;;;;;;;;18.70;99.90;;;;;;5061453;28;19913;-51
2023/06/02 08:54:02;;;;;;;;;;;18.70;99.90;;;;;;5060967;28;20269;-47
2023/06/02 08:56:28;;;;;;;;;;;18.80;99.90;;;;;;5061028;28;19908;-53
2023/06/02 08:58:54;;;;;;;;;;;18.90;99.90;;;;;;5060941;28;19991;-52
2023/06/02 09:01:19;;;;;;;;;;;18.90;99.90;;;;;;5060521;28;19909;-47
2023/06/02 09:03:46;;;;;;;;;;;18.90;99.90;;;;;;5060353;28;19908;-49
2023/06/02 09:06:22;;;;;;;;;;;19.00;99.90;;;;;;5059417;28;19920;-49
2023/06/02 09:08:52;;;;;;;;;;;19.10;99.90;;;;;;5061135;28;19970;-46
2023/06/02 09:11:19;;;;;;;;;;;19.10;99.90;;;;;;5060494;28;19920;-51
2023/06/02 09:13:45;;;;;;;;;;;19.20;99.90;;;;;;5060366;28;20055;-53
2023/06/02 09:16:10;;;;;;;;;;;19.30;99.90;;;;;;5060565;28;20354;-52
2023/06/02 09:18:36;;;;;;;;;;;19.50;99.90;;;;;;5060524;28;19909;-51
2023/06/02 09:21:02;;;;;;;;;;;19.60;99.90;;;;;;5060688;28;19913;-54
2023/06/02 09:23:43;;;;;;;;;;;19.70;99.90;;;;;;5060591;28;19909;-52
2023/06/02 09:26:22;;;;;;;;;;;19.80;99.90;;;;;;5060348;28;19913;-53
2023/06/02 09:29:07;;;;;;;;;;;20.00;99.90;;;;;;5059552;28;20039;-50
2023/06/02 09:31:44;;;;;;;;;;;20.10;99.90;;;;;;5060658;28;20459;-53
2023/06/02 09:34:14;;;;;;;;;;;20.30;99.90;;;;;;5060470;28;19909;-54
2023/06/02 09:36:40;;;;;;;;;;;20.30;97.70;;;;;;5060474;28;19908;-53
2023/06/02 09:39:06;;;;;;;;;;;20.50;99.90;;;;;;5060148;28;19909;-51
2023/06/02 09:41:32;;;;;;;;;;;20.60;99.80;;;;;;5059920;28;19913;-53
2023/06/02 09:43:58;;;;;;;;;;;20.70;98.20;;;;;;5059163;28;20287;-51
2023/06/02 09:46:23;;;;;;;;;;;20.90;99.70;;;;;;5060451;28;20332;-50
2023/06/02 09:48:56;;;;;;;;;;;21.10;97.00;;;;;;5058709;28;20289;-51
2023/06/02 09:51:22;;;;;;;;;;;21.40;99.80;;;;;;5059833;28;20283;-53
2023/06/02 09:53:48;;;;;;;;;;;21.50;99.50;;;;;;5059864;28;19962;-49
2023/06/02 09:56:14;;;;;;;;;;;21.60;97.10;;;;;;5059926;28;20432;-51
2023/06/02 09:58:41;;;;;;;;;;;21.70;95.70;;;;;;5059774;28;19916;-49
2023/06/02 10:01:06;;;;;;;;;;;21.90;92.80;;;;;;5059684;28;20399;-53
2023/06/02 10:03:32;;;;;;;;;;;22.10;96.20;;;;;;5059406;28;19920;-53
2023/06/02 10:06:07;;;;;;;;;;;22.40;95.70;;;;;;5059591;28;19909;-52
2023/06/02 10:08:41;;;;;;;;;;;22.50;85.80;;;;;;5059760;28;19912;-55
2023/06/02 10:11:20;;;;;;;;;;;22.90;92.60;;;;;;5059409;28;20323;-52
2023/06/02 10:13:45;;;;;;;;;;;23.80;91.40;;;;;;5059265;28;19920;-54
2023/06/02 10:16:11;;;;;;;;;;;24.30;89.10;;;;;;5059976;28;20387;-50
2023/06/02 10:18:36;;;;;;;;;;;25.20;86.60;;;;;;5059374;28;19951;-50
2023/06/02 10:21:08;;;;;;;;;;;26.10;80.00;;;;;;5059506;28;20394;-55
2023/06/02 10:23:36;;;;;;;;;;;26.80;76.00;;;;;;5059440;28;19916;-52
2023/06/02 10:26:21;;;;;;;;;;;27.70;81.90;;;;;;5059218;28;19912;-55
2023/06/02 10:28:47;;;;;;;;;;;28.40;75.20;;;;;;5059323;28;19912;-53
2023/06/02 10:31:13;;;;;;;;;;;29.40;71.90;;;;;;5059179;28;19913;-53
2023/06/02 10:33:42;;;;;;;;;;;28.60;66.40;;;;;;5059121;28;19915;-52
2023/06/02 10:36:08;;;;;;;;;;;28.10;60.30;;;;;;5074472;28;19917;-52
2023/06/02 10:38:38;;;;;;;;;;;28.70;63.60;;;;;;5059108;28;19996;-55
2023/06/02 10:41:04;;;;;;;;;;;30.00;64.50;;;;;;5058996;28;19916;-51
2023/06/02 10:43:32;;;;;;;;;;;30.60;61.20;;;;;;5059230;28;19913;-53
2023/06/02 10:46:16;;;;;;;;;;;30.80;60.50;;;;;;5058873;28;19908;-52
2023/06/02 10:48:42;;;;;;;;;;;31.60;62.40;;;;;;5058728;28;19909;-49
2023/06/02 10:51:12;;;;;;;;;;;31.70;57.90;;;;;;5059040;28;19919;-55
2023/06/02 10:53:56;;;;;;;;;;;32.00;53.10;;;;;;5058655;28;19909;-54
2023/06/02 10:56:48;;;;;;;;;;;32.40;52.40;;;;;;5058650;28;20306;-53
2023/06/02 10:59:30;;;;;;;;;;;32.40;52.80;;;;;;5056475;28;19916;-54
2023/06/02 11:01:56;;;;;;;;;;;32.60;50.60;;;;;;5058423;28;19913;-54
2023/06/02 11:04:31;;;;;;;;;;;32.20;46.50;;;;;;5058776;28;19943;-55
2023/06/02 11:07:15;;;;;;;;;;;31.70;52.00;;;;;;5058411;28;19916;-55
2023/06/02 11:09:43;;;;;;;;;;;32.50;48.40;;;;;;5058455;28;19908;-52
2023/06/02 11:12:08;;;;;;;;;;;32.30;47.50;;;;;;5058361;28;19913;-52
2023/06/02 11:14:53;;;;;;;;;;;33.10;49.30;;;;;;5058101;28;19921;-55
2023/06/02 11:17:31;;;;;;;;;;;34.00;48.70;;;;;;5058780;28;19916;-56
2023/06/02 11:19:57;;;;;;;;;;;34.30;44.30;;;;;;5058226;28;19909;-55
2023/06/02 11:22:27;;;;;;;;;;;34.00;44.70;;;;;;5058312;28;20299;-55
2023/06/02 11:24:53;;;;;;;;;;;34.30;43.20;;;;;;5058465;28;19993;-56
2023/06/02 11:27:19;;;;;;;;;;;34.50;42.70;;;;;;5058535;28;19940;-56
2023/06/02 11:29:44;;;;;;;;;;;34.70;42.10;;;;;;5058113;28;19908;-54
2023/06/02 11:32:11;;;;;;;;;;;34.60;40.30;;;;;;5057865;28;19919;-53
2023/06/02 11:34:37;;;;;;;;;;;34.30;39.50;;;;;;5058023;28;20322;-51
2023/06/02 11:37:20;;;;;;;;;;;33.10;37.70;;;;;;5058298;28;19909;-55
2023/06/02 11:39:50;;;;;;;;;;;33.30;38.30;;;;;;5058001;28;19995;-56
2023/06/02 11:42:15;;;;;;;;;;;34.60;40.10;;;;;;5057862;28;19909;-55
2023/06/02 11:44:50;;;;;;;;;;;33.10;36.90;;;;;;5058184;28;19958;-56
2023/06/02 11:47:19;;;;;;;;;;;33.20;36.40;;;;;;5058151;28;19909;-54
2023/06/02 11:49:45;;;;;;;;;;;33.60;37.80;;;;;;5058097;28;19909;-53
2023/06/02 11:52:11;;;;;;;;;;;34.40;37.60;;;;;;5058290;28;19912;-56
2023/06/02 11:54:52;;;;;;;;;;;34.90;37.80;;;;;;5058056;28;20318;-53
2023/06/02 11:57:44;;;;;;;;;;;34.60;39.70;;;;;;5058064;28;19910;-54
2023/06/02 12:00:20;;;;;;;;;;;33.80;37.00;;;;;;5055657;28;19916;-54
2023/06/02 12:02:52;;;;;;;;;;;34.40;38.00;;;;;;5057714;28;19913;-57
2023/06/02 12:05:29;;;;;;;;;;;34.30;37.40;;;;;;5057549;28;19959;-54
2023/06/02 12:07:55;;;;;;;;;;;35.20;37.00;;;;;;5056894;28;19932;-54
2023/06/02 12:10:21;;;;;;;;;;;34.70;36.50;;;;;;5057906;28;19909;-54
2023/06/02 12:12:47;;;;;;;;;;;34.80;35.30;;;;;;5057377;28;19921;-56
2023/06/02 12:15:16;;;;;;;;;;;34.90;35.40;;;;;;5057673;28;19924;-54
2023/06/02 12:17:45;;;;;;;;;;;35.20;36.40;;;;;;5057636;28;19913;-54
2023/06/02 12:20:11;;;;;;;;;;;35.80;36.60;;;;;;5057396;28;19916;-54
2023/06/02 12:22:53;;;;;;;;;;;35.60;34.60;;;;;;5057679;28;19908;-51
2023/06/02 12:25:20;;;;;;;;;;;35.90;36.10;;;;;;5057472;28;19992;-56
2023/06/02 12:27:46;;;;;;;;;;;36.30;35.70;;;;;;5057254;28;20344;-56
2023/06/02 12:30:13;;;;;;;;;;;36.00;36.10;;;;;;5057379;28;19909;-55
2023/06/02 12:32:39;;;;;;;;;;;35.80;34.70;;;;;;5057605;28;19917;-54
2023/06/02 12:35:05;;;;;;;;;;;35.10;34.50;;;;;;5057405;28;19913;-55
2023/06/02 12:37:30;;;;;;;;;;;35.60;35.80;;;;;;5057248;28;19909;-54
2023/06/02 12:39:56;;;;;;;;;;;35.70;34.00;;;;;;5057275;28;19923;-56
2023/06/02 12:42:21;;;;;;;;;;;35.60;32.80;;;;;;5057390;28;19913;-57
2023/06/02 12:44:49;;;;;;;;;;;35.50;33.30;;;;;;5057760;28;20381;-55
2023/06/02 12:47:17;;;;;;;;;;;35.60;32.80;;;;;;5057303;28;19913;-56
2023/06/02 12:49:47;;;;;;;;;;;35.80;32.70;;;;;;5057321;28;19915;-56
2023/06/02 12:52:16;;;;;;;;;;;35.80;31.90;;;;;;5056989;28;20330;-56
2023/06/02 12:54:41;;;;;;;;;;;35.40;32.40;;;;;;5057456;28;19958;-55
2023/06/02 12:57:08;;;;;;;;;;;35.00;30.90;;;;;;5057185;28;19908;-56
2023/06/02 12:59:34;;;;;;;;;;;35.20;33.70;;;;;;5056799;28;20371;-56
2023/06/02 13:01:59;;;;;;;;;;;35.40;32.50;;;;;;5056906;28;19909;-56
2023/06/02 13:04:25;;;;;;;;;;;35.60;34.60;;;;;;5057328;28;19909;-55
2023/06/02 13:06:51;;;;;;;;;;;35.70;34.10;;;;;;5057178;28;19916;-57
2023/06/02 13:09:17;;;;;;;;;;;36.00;32.90;;;;;;5057308;28;20397;-56
2023/06/02 13:11:46;;;;;;;;;;;36.30;32.70;;;;;;5055556;28;20334;-57
2023/06/02 13:14:12;;;;;;;;;;;36.40;33.50;;;;;;5056590;28;19996;-56
2023/06/02 13:16:37;;;;;;;;;;;36.40;33.70;;;;;;5057203;28;19940;-51
2023/06/02 13:19:03;;;;;;;;;;;36.20;31.70;;;;;;5057122;28;20295;-54
2023/06/02 13:21:29;;;;;;;;;;;34.80;30.70;;;;;;5061117;28;20369;-55
2023/06/02 13:23:57;;;;;;;;;;;34.30;32.60;;;;;;5060753;28;19909;-54
2023/06/02 13:26:22;;;;;;;;;;;34.00;30.90;;;;;;5061025;28;19919;-55
2023/06/02 13:28:48;;;;;;;;;;;33.50;32.30;;;;;;5060412;28;20268;-56
2023/06/02 13:31:14;;;;;;;;;;;32.70;30.20;;;;;;5060743;28;19971;-54
2023/06/02 13:33:39;;;;;;;;;;;32.70;31.60;;;;;;5060459;28;19990;-56
2023/06/02 13:36:06;;;;;;;;;;;33.20;32.50;;;;;;5060565;28;19916;-55
2023/06/02 13:38:31;;;;;;;;;;;33.60;32.20;;;;;;5060293;28;19909;-54
2023/06/02 13:40:57;;;;;;;;;;;33.50;31.80;;;;;;5060849;28;19923;-55
2023/06/02 13:43:23;;;;;;;;;;;33.80;32.70;;;;;;5060281;28;19916;-56
2023/06/02 13:45:49;;;;;;;;;;;33.40;33.20;;;;;;5060187;28;19909;-54
2023/06/02 13:48:14;;;;;;;;;;;33.50;32.40;;;;;;5059896;28;19909;-53
2023/06/02 13:50:40;;;;;;;;;;;33.50;32.60;;;;;;5060121;28;19939;-54
2023/06/02 13:53:07;;;;;;;;;;;33.80;33.20;;;;;;5060050;28;19916;-55
2023/06/02 13:55:33;;;;;;;;;;;33.50;33.00;;;;;;5060136;28;19913;-56
2023/06/02 13:57:59;;;;;;;;;;;33.50;33.10;;;;;;5060199;28;19908;-57
2023/06/02 14:00:25;;;;;;;;;;;33.40;32.70;;;;;;5059707;28;19915;-57
2023/06/02 14:02:51;;;;;;;;;;;32.60;33.00;;;;;;5059700;28;19909;-56
2023/06/02 14:05:16;;;;;;;;;;;31.70;32.40;;;;;;5059802;28;19972;-56
2023/06/02 14:07:42;;;;;;;;;;;31.80;33.30;;;;;;5059846;28;19912;-54
2023/06/02 14:10:08;;;;;;;;;;;31.70;32.70;;;;;;5059754;28;19912;-55
2023/06/02 14:12:33;;;;;;;;;;;31.30;32.90;;;;;;5059536;28;19963;-54
2023/06/02 14:14:59;;;;;;;;;;;30.70;33.20;;;;;;5059585;28;19924;-54
2023/06/02 14:17:25;;;;;;;;;;;30.40;33.90;;;;;;5060020;28;19909;-55